createdAt,value
2023-03-22T00:00:27.603Z,1.70
2023-03-22T00:02:57.095Z,2.50
2023-03-22T00:05:26.621Z,1.97
2023-03-22T00:07:57.973Z,1.60
2023-03-22T00:10:27.607Z,1.97
2023-03-22T00:12:56.347Z,3.47
2023-03-22T00:15:24.849Z,1.97
2023-03-22T00:17:53.345Z,2.17
2023-03-22T00:20:23.629Z,1.90
2023-03-22T00:22:53.250Z,2.23
2023-03-22T00:25:21.366Z,4.50
2023-03-22T00:27:49.456Z,2.40
2023-03-22T00:30:18.332Z,2.67
2023-03-22T00:32:46.577Z,2.33
2023-03-22T00:35:15.320Z,3.30
2023-03-22T00:37:43.381Z,1.40
2023-03-22T00:40:18.284Z,1.77
2023-03-22T00:42:46.521Z,2.00
2023-03-22T00:45:14.979Z,1.90
2023-03-22T00:47:47.314Z,1.83
2023-03-22T00:50:41.189Z,2.03
2023-03-22T00:53:12.895Z,1.60
2023-03-22T00:55:42.512Z,2.10
2023-03-22T00:58:10.698Z,2.40
2023-03-22T01:00:38.978Z,2.23
2023-03-22T01:03:08.560Z,1.83
2023-03-22T01:05:36.777Z,1.77
2023-03-22T01:08:08.558Z,1.67
2023-03-22T01:10:37.455Z,1.90
2023-03-22T01:13:08.227Z,1.87
2023-03-22T01:15:36.618Z,2.20
2023-03-22T01:18:05.509Z,1.87
2023-03-22T01:20:33.912Z,1.70
2023-03-22T01:23:02.070Z,1.67
2023-03-22T01:25:30.753Z,1.90
2023-03-22T01:27:59.012Z,1.70
2023-03-22T01:30:28.461Z,1.80
2023-03-22T01:32:56.622Z,1.97
2023-03-22T01:35:24.950Z,1.93
2023-03-22T01:37:53.389Z,2.03
2023-03-22T01:40:22.334Z,1.90
2023-03-22T01:42:50.910Z,1.90
2023-03-22T01:45:45.968Z,1.77
2023-03-22T01:48:21.966Z,1.90
2023-03-22T01:50:59.729Z,1.97
2023-03-22T01:53:29.391Z,2.10
2023-03-22T01:55:58.696Z,2.00
2023-03-22T01:58:33.280Z,1.97
2023-03-22T02:01:08.005Z,1.90
2023-03-22T02:03:56.512Z,1.83
2023-03-22T02:06:26.713Z,1.80
2023-03-22T02:09:01.560Z,2.10
2023-03-22T02:11:36.197Z,1.80
2023-03-22T02:14:35.466Z,1.77
2023-03-22T02:17:35.229Z,1.70
2023-03-22T02:20:56.330Z,2.00
2023-03-22T02:24:23.683Z,1.70
2023-03-22T02:27:32.440Z,1.93
2023-03-22T02:30:32.764Z,1.80
2023-03-22T02:33:31.762Z,1.97
2023-03-22T02:36:31.012Z,2.10
2023-03-22T02:39:16.585Z,1.70
2023-03-22T02:42:00.243Z,1.70
2023-03-22T02:44:41.593Z,1.90
2023-03-22T02:47:21.545Z,1.63
2023-03-22T02:49:57.900Z,1.77
2023-03-22T02:52:36.004Z,1.80
2023-03-22T02:55:15.207Z,2.03
2023-03-22T02:57:49.685Z,1.90
2023-03-22T03:00:20.974Z,1.80
2023-03-22T03:02:53.348Z,1.90
2023-03-22T03:05:23.178Z,2.00
2023-03-22T03:07:56.723Z,1.60
2023-03-22T03:10:28.062Z,1.87
2023-03-22T03:12:56.063Z,1.73
2023-03-22T03:15:26.058Z,2.13
2023-03-22T03:18:24.495Z,1.60
2023-03-22T03:21:04.054Z,1.90
2023-03-22T03:23:46.639Z,1.60
2023-03-22T03:26:28.065Z,1.87
2023-03-22T03:29:03.064Z,1.83
2023-03-22T03:31:41.313Z,1.60
2023-03-22T03:34:17.187Z,2.00
2023-03-22T03:36:54.264Z,1.90
2023-03-22T03:39:23.168Z,2.10
2023-03-22T03:41:56.195Z,2.00
2023-03-22T03:44:25.470Z,1.87
2023-03-22T03:46:55.443Z,2.07
2023-03-22T03:49:24.834Z,2.10
2023-03-22T03:51:55.682Z,1.90
2023-03-22T03:54:24.741Z,2.20
2023-03-22T03:56:54.831Z,1.67
2023-03-22T03:59:23.203Z,1.53
2023-03-22T04:01:53.155Z,1.80
2023-03-22T04:04:29.619Z,2.00
2023-03-22T04:07:03.765Z,1.77
2023-03-22T04:09:35.835Z,1.70
2023-03-22T04:12:14.017Z,1.90
2023-03-22T04:14:45.412Z,2.43
2023-03-22T04:17:22.226Z,1.70
2023-03-22T04:19:56.595Z,2.00
2023-03-22T04:22:25.435Z,1.77
2023-03-22T04:24:53.802Z,1.70
2023-03-22T04:27:25.684Z,1.90
2023-03-22T04:30:01.638Z,1.80
2023-03-22T04:32:58.837Z,1.63
2023-03-22T04:35:39.697Z,1.60
2023-03-22T04:38:07.827Z,1.70
2023-03-22T04:40:38.942Z,1.87
2023-03-22T04:43:34.842Z,1.60
2023-03-22T04:46:09.935Z,2.00
2023-03-22T04:48:47.748Z,1.80
2023-03-22T04:51:17.408Z,1.80
2023-03-22T04:54:04.378Z,1.83
2023-03-22T04:56:32.877Z,1.77
2023-03-22T04:59:03.369Z,1.97
2023-03-22T05:01:31.479Z,1.77
2023-03-22T05:04:10.690Z,2.00
2023-03-22T05:06:38.913Z,2.00
2023-03-22T05:09:14.274Z,2.00
2023-03-22T05:11:43.189Z,2.00
2023-03-22T05:14:22.761Z,2.03
2023-03-22T05:16:51.122Z,1.83
2023-03-22T05:19:22.410Z,3.40
2023-03-22T05:21:57.851Z,2.57
2023-03-22T05:24:31.703Z,2.27
2023-03-22T05:27:03.646Z,2.00
2023-03-22T05:29:36.994Z,1.90
2023-03-22T05:32:14.881Z,1.97
2023-03-22T05:34:45.465Z,2.47
2023-03-22T05:37:23.418Z,2.00
2023-03-22T05:39:55.197Z,1.90
2023-03-22T05:42:28.881Z,2.40
2023-03-22T05:44:59.041Z,2.00
2023-03-22T05:47:27.075Z,1.80
2023-03-22T05:50:02.780Z,2.20
2023-03-22T05:52:32.354Z,2.10
2023-03-22T05:55:20.443Z,1.80
2023-03-22T05:57:51.537Z,1.87
2023-03-22T06:00:23.861Z,1.70
2023-03-22T06:03:13.708Z,1.50
2023-03-22T06:05:46.636Z,1.63
2023-03-22T06:08:14.933Z,1.70
2023-03-22T06:10:43.156Z,1.83
2023-03-22T06:13:11.722Z,1.90
2023-03-22T06:15:41.225Z,1.80
2023-03-22T06:18:11.839Z,1.90
2023-03-22T06:20:44.046Z,2.07
2023-03-22T06:23:17.742Z,2.20
2023-03-22T06:25:47.748Z,1.80
2023-03-22T06:28:17.170Z,2.23
2023-03-22T06:30:57.508Z,1.83
2023-03-22T06:33:36.373Z,1.90
2023-03-22T06:36:15.442Z,2.07
2023-03-22T06:39:02.723Z,2.00
2023-03-22T06:41:31.057Z,2.20
2023-03-22T06:43:59.130Z,1.90
2023-03-22T06:46:46.957Z,2.07
2023-03-22T06:49:27.918Z,2.00
2023-03-22T06:51:56.521Z,2.60
2023-03-22T06:54:24.784Z,1.77
2023-03-22T06:56:52.943Z,1.60
2023-03-22T06:59:21.033Z,1.83
2023-03-22T07:01:50.984Z,2.07
2023-03-22T07:04:19.952Z,1.70
2023-03-22T07:06:49.507Z,1.90
2023-03-22T07:09:18.143Z,1.80
2023-03-22T07:11:49.073Z,1.80
2023-03-22T07:14:17.181Z,1.80
2023-03-22T07:16:56.936Z,1.60
2023-03-22T07:19:25.879Z,1.63
2023-03-22T07:21:54.321Z,1.70
2023-03-22T07:24:24.171Z,1.57
2023-03-22T07:26:52.265Z,1.50
2023-03-22T07:29:25.112Z,1.50
2023-03-22T07:31:53.755Z,1.47
2023-03-22T07:34:30.161Z,1.50
2023-03-22T07:37:08.341Z,1.93
2023-03-22T07:39:36.624Z,1.40
2023-03-22T07:42:05.012Z,1.50
2023-03-22T07:44:53.454Z,1.70
2023-03-22T07:47:37.713Z,1.60
2023-03-22T07:50:29.562Z,1.30
2023-03-22T07:53:00.937Z,1.50
2023-03-22T07:55:29.159Z,1.47
2023-03-22T07:57:57.397Z,1.30
2023-03-22T08:00:26.242Z,1.17
2023-03-22T08:03:06.983Z,1.27
2023-03-22T08:06:06.413Z,1.30
2023-03-22T08:09:00.768Z,1.03
2023-03-22T08:11:31.351Z,1.10
2023-03-22T08:14:35.874Z,1.20
2023-03-22T08:17:09.031Z,1.23
2023-03-22T08:19:37.301Z,0.90
2023-03-22T08:22:08.913Z,0.80
2023-03-22T08:25:16.047Z,1.27
2023-03-22T08:27:44.897Z,1.00
2023-03-22T08:30:15.642Z,1.07
2023-03-22T08:32:44.864Z,1.00
2023-03-22T08:35:13.853Z,0.93
2023-03-22T08:37:44.858Z,0.80
2023-03-22T08:40:14.472Z,1.13
2023-03-22T08:42:47.183Z,1.33
2023-03-22T08:45:15.419Z,0.80
2023-03-22T08:47:50.717Z,1.00
2023-03-22T08:50:23.366Z,0.80
2023-03-22T08:53:00.544Z,0.50
2023-03-22T08:55:32.206Z,0.83
2023-03-22T08:58:13.124Z,0.83
2023-03-22T09:01:07.581Z,0.60
2023-03-22T09:03:43.201Z,0.60
2023-03-22T09:06:12.084Z,1.00
2023-03-22T09:08:43.481Z,0.50
2023-03-22T09:11:17.640Z,0.83
2023-03-22T09:13:47.625Z,0.70
2023-03-22T09:16:21.429Z,0.73
2023-03-22T09:18:50.061Z,0.80
2023-03-22T09:21:27.443Z,0.80
2023-03-22T09:24:20.472Z,0.70
2023-03-22T09:26:53.925Z,0.83
2023-03-22T09:29:49.454Z,1.00
2023-03-22T09:32:42.716Z,0.87
2023-03-22T09:35:13.679Z,0.83
2023-03-22T09:38:03.662Z,0.73
2023-03-22T09:40:36.191Z,0.73
2023-03-22T09:43:09.928Z,0.90
2023-03-22T09:45:43.653Z,0.80
2023-03-22T09:48:19.560Z,0.90
2023-03-22T09:50:52.489Z,0.60
2023-03-22T09:53:23.672Z,0.77
2023-03-22T09:55:58.120Z,1.20
2023-03-22T09:58:33.795Z,0.57
2023-03-22T10:01:07.956Z,0.80
2023-03-22T10:04:04.243Z,0.80
2023-03-22T10:06:33.009Z,1.10
2023-03-22T10:09:10.000Z,1.10
2023-03-22T10:11:47.415Z,0.90
2023-03-22T10:14:31.733Z,1.10
2023-03-22T10:17:05.568Z,1.00
2023-03-22T10:19:41.319Z,1.37
2023-03-22T10:22:14.179Z,1.17
2023-03-22T10:24:45.258Z,1.17
2023-03-22T10:27:18.733Z,1.20
2023-03-22T10:29:52.020Z,1.00
2023-03-22T10:32:26.254Z,1.10
2023-03-22T10:34:54.680Z,1.20
2023-03-22T10:37:27.392Z,1.03
2023-03-22T10:39:59.629Z,1.00
2023-03-22T10:42:31.993Z,1.03
2023-03-22T10:45:04.474Z,1.10
2023-03-22T10:47:36.727Z,1.10
2023-03-22T10:50:10.151Z,0.77
2023-03-22T10:52:47.569Z,0.80
2023-03-22T10:55:17.884Z,0.97
2023-03-22T10:58:00.390Z,0.60
2023-03-22T11:00:30.977Z,0.50
2023-03-22T11:03:02.061Z,0.67
2023-03-22T11:05:31.748Z,0.47
2023-03-22T11:08:03.773Z,0.50
2023-03-22T11:10:34.151Z,0.70
2023-03-22T11:13:21.504Z,0.90
2023-03-22T11:15:59.885Z,0.63
2023-03-22T11:18:33.360Z,0.50
2023-03-22T11:21:11.200Z,0.57
2023-03-22T11:23:43.861Z,0.87
2023-03-22T11:26:15.733Z,0.63
2023-03-22T11:28:50.672Z,0.70
2023-03-22T11:31:21.242Z,0.50
2023-03-22T11:33:58.247Z,0.70
2023-03-22T11:36:28.333Z,0.50
2023-03-22T11:39:01.412Z,0.60
2023-03-22T11:41:33.385Z,0.60
2023-03-22T11:44:06.746Z,0.40
2023-03-22T11:46:37.930Z,0.40
2023-03-22T11:49:10.567Z,0.40
2023-03-22T11:51:41.434Z,0.60
2023-03-22T11:54:15.893Z,0.57
2023-03-22T11:56:49.015Z,0.53
2023-03-22T11:59:25.318Z,0.47
2023-03-22T12:02:02.030Z,0.80
2023-03-22T12:04:36.033Z,0.60
2023-03-22T12:07:14.237Z,0.60
2023-03-22T12:09:51.078Z,0.70
2023-03-22T12:12:23.738Z,0.93
2023-03-22T12:14:59.959Z,0.60
2023-03-22T12:18:01.990Z,0.60
2023-03-22T12:20:45.116Z,0.70
2023-03-22T12:23:16.903Z,0.87
2023-03-22T12:25:51.263Z,0.50
2023-03-22T12:28:25.586Z,0.60
2023-03-22T12:30:58.563Z,0.60
2023-03-22T12:33:31.003Z,0.57
2023-03-22T12:36:03.360Z,0.50
2023-03-22T12:38:39.380Z,0.50
2023-03-22T12:41:13.456Z,0.70
2023-03-22T12:43:50.734Z,0.30
2023-03-22T12:46:25.189Z,0.60
2023-03-22T12:48:58.744Z,0.70
2023-03-22T12:51:26.973Z,0.60
2023-03-22T12:53:58.412Z,0.60
2023-03-22T12:56:31.773Z,0.77
2023-03-22T12:59:04.471Z,0.57
2023-03-22T13:01:40.678Z,0.40
2023-03-22T13:04:51.167Z,0.60
2023-03-22T13:07:54.279Z,0.70
2023-03-22T13:11:09.590Z,0.57
2023-03-22T13:13:55.902Z,0.50
2023-03-22T13:17:01.440Z,0.90
2023-03-22T13:19:35.079Z,0.60
2023-03-22T13:22:24.212Z,0.60
2023-03-22T13:25:13.722Z,0.50
2023-03-22T13:27:52.315Z,0.70
2023-03-22T13:30:26.816Z,0.83
2023-03-22T13:33:03.733Z,0.70
2023-03-22T13:35:44.831Z,0.80
2023-03-22T13:38:23.176Z,0.80
2023-03-22T13:41:00.718Z,0.60
2023-03-22T13:43:34.106Z,0.70
2023-03-22T13:46:45.320Z,0.70
2023-03-22T13:49:49.106Z,0.43
2023-03-22T13:52:29.780Z,0.80
2023-03-22T13:54:59.286Z,0.60
2023-03-22T13:57:58.844Z,0.53
2023-03-22T14:00:54.004Z,0.60
2023-03-22T14:03:29.925Z,1.00
2023-03-22T14:06:17.417Z,0.60
2023-03-22T14:08:48.520Z,0.67
2023-03-22T14:11:29.688Z,0.57
2023-03-22T14:14:04.238Z,0.80
2023-03-22T14:16:43.068Z,0.60
2023-03-22T14:19:20.470Z,0.90
